sensor_id;sensor_type;location;lat;lon;timestamp;pressure;altitude;pressure_sealevel;temperature;humidity
63399;BME280;49533;-34.520;150.798;2023-03-01T00:01:11;99776.38;;;23.41;59.70
63399;BME280;49533;-34.520;150.798;2023-03-01T00:03:38;99780.69;;;23.46;59.91
63399;BME280;49533;-34.520;150.798;2023-03-01T00:06:06;99777.50;;;23.48;59.92
63399;BME280;49533;-34.520;150.798;2023-03-01T00:08:33;99786.56;;;23.52;59.98
63399;BME280;49533;-34.520;150.798;2023-03-01T00:11:09;99775.91;;;23.50;59.96
63399;BME280;49533;-34.520;150.798;2023-03-01T00:13:37;99781.44;;;23.50;60.06
63399;BME280;49533;-34.520;150.798;2023-03-01T00:16:06;99780.66;;;23.50;60.20
63399;BME280;49533;-34.520;150.798;2023-03-01T00:18:34;99775.00;;;23.60;60.31
63399;BME280;49533;-34.520;150.798;2023-03-01T00:21:01;99790.75;;;23.67;60.08
63399;BME280;49533;-34.520;150.798;2023-03-01T00:23:28;99788.69;;;23.75;60.25
63399;BME280;49533;-34.520;150.798;2023-03-01T00:25:56;99790.31;;;23.72;60.02
63399;BME280;49533;-34.520;150.798;2023-03-01T00:28:23;99786.53;;;23.90;59.96
63399;BME280;49533;-34.520;150.798;2023-03-01T00:30:50;99785.59;;;24.03;60.14
63399;BME280;49533;-34.520;150.798;2023-03-01T00:33:17;99788.25;;;24.11;59.78
63399;BME280;49533;-34.520;150.798;2023-03-01T00:35:45;99777.47;;;24.16;59.45
63399;BME280;49533;-34.520;150.798;2023-03-01T00:38:12;99773.13;;;24.15;59.14
63399;BME280;49533;-34.520;150.798;2023-03-01T00:40:39;99785.69;;;24.23;58.84
63399;BME280;49533;-34.520;150.798;2023-03-01T00:43:06;99777.72;;;24.25;58.43
63399;BME280;49533;-34.520;150.798;2023-03-01T00:45:33;99778.31;;;24.13;59.14
63399;BME280;49533;-34.520;150.798;2023-03-01T00:48:00;99774.66;;;24.20;59.44
63399;BME280;49533;-34.520;150.798;2023-03-01T00:50:28;99767.09;;;24.20;58.85
63399;BME280;49533;-34.520;150.798;2023-03-01T00:52:56;99766.25;;;24.23;58.46
63399;BME280;49533;-34.520;150.798;2023-03-01T00:55:23;99758.78;;;24.20;58.10
63399;BME280;49533;-34.520;150.798;2023-03-01T00:57:51;99774.25;;;24.21;58.32
63399;BME280;49533;-34.520;150.798;2023-03-01T01:00:19;99791.25;;;24.23;57.58
63399;BME280;49533;-34.520;150.798;2023-03-01T01:02:47;99763.47;;;24.23;58.08
63399;BME280;49533;-34.520;150.798;2023-03-01T01:05:14;99777.69;;;24.29;58.18
63399;BME280;49533;-34.520;150.798;2023-03-01T01:07:47;99785.56;;;24.34;57.83
63399;BME280;49533;-34.520;150.798;2023-03-01T01:10:14;99785.44;;;24.41;57.77
63399;BME280;49533;-34.520;150.798;2023-03-01T01:12:44;99777.47;;;24.47;57.68
63399;BME280;49533;-34.520;150.798;2023-03-01T01:15:12;99775.78;;;24.53;56.98
63399;BME280;49533;-34.520;150.798;2023-03-01T01:17:42;99778.16;;;24.55;56.83
63399;BME280;49533;-34.520;150.798;2023-03-01T01:20:10;99780.59;;;24.49;57.37
63399;BME280;49533;-34.520;150.798;2023-03-01T01:22:38;99775.78;;;24.53;57.76
63399;BME280;49533;-34.520;150.798;2023-03-01T01:25:05;99778.56;;;24.53;57.41
63399;BME280;49533;-34.520;150.798;2023-03-01T01:27:33;99772.25;;;24.49;57.77
63399;BME280;49533;-34.520;150.798;2023-03-01T01:30:00;99779.69;;;24.56;57.88
63399;BME280;49533;-34.520;150.798;2023-03-01T01:32:27;99772.44;;;24.62;57.13
63399;BME280;49533;-34.520;150.798;2023-03-01T01:34:54;99774.34;;;24.68;56.87
63399;BME280;49533;-34.520;150.798;2023-03-01T01:37:21;99773.56;;;24.68;56.41
63399;BME280;49533;-34.520;150.798;2023-03-01T01:39:49;99772.03;;;24.63;56.60
63399;BME280;49533;-34.520;150.798;2023-03-01T01:42:18;99767.28;;;24.64;56.98
63399;BME280;49533;-34.520;150.798;2023-03-01T01:44:47;99762.63;;;24.57;56.83
63399;BME280;49533;-34.520;150.798;2023-03-01T01:47:18;99769.34;;;24.60;57.13
63399;BME280;49533;-34.520;150.798;2023-03-01T01:49:50;99762.16;;;24.62;57.25
63399;BME280;49533;-34.520;150.798;2023-03-01T01:52:26;99760.94;;;24.63;57.35
63399;BME280;49533;-34.520;150.798;2023-03-01T01:55:03;99748.59;;;24.64;57.36
63399;BME280;49533;-34.520;150.798;2023-03-01T01:57:37;99752.13;;;24.68;57.46
63399;BME280;49533;-34.520;150.798;2023-03-01T02:00:10;99753.69;;;24.69;57.30
63399;BME280;49533;-34.520;150.798;2023-03-01T02:02:38;99739.38;;;24.71;57.73
63399;BME280;49533;-34.520;150.798;2023-03-01T02:05:17;99746.00;;;24.77;57.52
63399;BME280;49533;-34.520;150.798;2023-03-01T02:07:49;99723.88;;;24.73;57.15
63399;BME280;49533;-34.520;150.798;2023-03-01T02:10:16;99727.78;;;24.76;57.23
63399;BME280;49533;-34.520;150.798;2023-03-01T02:12:44;99738.41;;;24.81;57.89
63399;BME280;49533;-34.520;150.798;2023-03-01T02:15:12;99734.41;;;24.82;57.75
63399;BME280;49533;-34.520;150.798;2023-03-01T02:17:39;99741.97;;;24.82;57.74
63399;BME280;49533;-34.520;150.798;2023-03-01T02:20:27;99747.16;;;24.80;57.31
63399;BME280;49533;-34.520;150.798;2023-03-01T02:22:56;99756.66;;;24.82;57.72
63399;BME280;49533;-34.520;150.798;2023-03-01T02:25:34;99757.44;;;24.83;57.86
63399;BME280;49533;-34.520;150.798;2023-03-01T02:28:22;99761.78;;;24.84;57.56
63399;BME280;49533;-34.520;150.798;2023-03-01T02:30:50;99760.22;;;24.83;57.54
63399;BME280;49533;-34.520;150.798;2023-03-01T02:33:30;99761.78;;;24.84;57.39
63399;BME280;49533;-34.520;150.798;2023-03-01T02:36:00;99768.13;;;24.84;57.75
63399;BME280;49533;-34.520;150.798;2023-03-01T02:38:29;99765.72;;;24.86;57.36
63399;BME280;49533;-34.520;150.798;2023-03-01T02:40:57;99767.28;;;24.87;57.76
63399;BME280;49533;-34.520;150.798;2023-03-01T02:43:30;99775.19;;;24.89;57.72
63399;BME280;49533;-34.520;150.798;2023-03-01T02:46:02;99771.56;;;24.92;57.79
63399;BME280;49533;-34.520;150.798;2023-03-01T02:48:40;99782.69;;;24.92;57.80
63399;BME280;49533;-34.520;150.798;2023-03-01T02:51:18;99791.88;;;24.89;57.97
63399;BME280;49533;-34.520;150.798;2023-03-01T02:56:35;99806.44;;;24.97;57.50
63399;BME280;49533;-34.520;150.798;2023-03-01T02:59:03;99802.19;;;24.88;57.53
63399;BME280;49533;-34.520;150.798;2023-03-01T03:01:31;99823.75;;;24.81;57.01
63399;BME280;49533;-34.520;150.798;2023-03-01T03:04:06;99826.28;;;24.71;56.88
63399;BME280;49533;-34.520;150.798;2023-03-01T03:06:34;99834.88;;;24.81;57.35
63399;BME280;49533;-34.520;150.798;2023-03-01T03:09:02;99843.25;;;24.77;56.62
63399;BME280;49533;-34.520;150.798;2023-03-01T03:11:30;99844.94;;;24.71;57.32
63399;BME280;49533;-34.520;150.798;2023-03-01T03:13:58;99870.72;;;24.71;57.34
63399;BME280;49533;-34.520;150.798;2023-03-01T03:16:25;99865.00;;;24.55;57.45
63399;BME280;49533;-34.520;150.798;2023-03-01T03:18:52;99866.84;;;24.35;55.77
63399;BME280;49533;-34.520;150.798;2023-03-01T03:21:19;99879.25;;;24.26;56.05
63399;BME280;49533;-34.520;150.798;2023-03-01T03:23:46;99882.03;;;24.26;57.12
63399;BME280;49533;-34.520;150.798;2023-03-01T03:26:13;99871.63;;;24.34;57.86
63399;BME280;49533;-34.520;150.798;2023-03-01T03:28:41;99871.56;;;24.38;56.60
63399;BME280;49533;-34.520;150.798;2023-03-01T03:31:08;99867.22;;;24.37;56.86
63399;BME280;49533;-34.520;150.798;2023-03-01T03:33:35;99869.50;;;24.45;57.26
63399;BME280;49533;-34.520;150.798;2023-03-01T03:36:04;99864.63;;;24.53;57.32
63399;BME280;49533;-34.520;150.798;2023-03-01T03:38:31;99858.22;;;24.60;57.51
63399;BME280;49533;-34.520;150.798;2023-03-01T03:41:02;99843.78;;;24.68;56.81
63399;BME280;49533;-34.520;150.798;2023-03-01T03:43:32;99877.78;;;24.76;56.94
63399;BME280;49533;-34.520;150.798;2023-03-01T03:45:59;99854.06;;;24.71;56.39
63399;BME280;49533;-34.520;150.798;2023-03-01T03:48:27;99843.88;;;24.61;56.51
63399;BME280;49533;-34.520;150.798;2023-03-01T03:50:55;99849.44;;;24.61;56.53
63399;BME280;49533;-34.520;150.798;2023-03-01T03:53:24;99842.78;;;24.55;55.89
63399;BME280;49533;-34.520;150.798;2023-03-01T03:55:52;99850.34;;;24.55;55.89
63399;BME280;49533;-34.520;150.798;2023-03-01T03:58:22;99853.94;;;24.51;55.92
63399;BME280;49533;-34.520;150.798;2023-03-01T04:00:52;99837.75;;;24.46;56.17
63399;BME280;49533;-34.520;150.798;2023-03-01T04:03:20;99849.53;;;24.54;56.22
63399;BME280;49533;-34.520;150.798;2023-03-01T04:05:48;99834.56;;;24.48;56.16
63399;BME280;49533;-34.520;150.798;2023-03-01T04:08:17;99841.34;;;24.43;56.20
63399;BME280;49533;-34.520;150.798;2023-03-01T04:10:47;99853.22;;;24.47;56.60
63399;BME280;49533;-34.520;150.798;2023-03-01T04:13:18;99852.78;;;24.49;56.52
63399;BME280;49533;-34.520;150.798;2023-03-01T04:15:49;99850.00;;;24.49;55.92
63399;BME280;49533;-34.520;150.798;2023-03-01T04:18:18;99850.06;;;24.45;55.63
63399;BME280;49533;-34.520;150.798;2023-03-01T04:20:46;99854.38;;;24.50;56.45
63399;BME280;49533;-34.520;150.798;2023-03-01T04:23:18;99853.16;;;24.51;56.30
63399;BME280;49533;-34.520;150.798;2023-03-01T04:25:50;99860.63;;;24.58;56.93
63399;BME280;49533;-34.520;150.798;2023-03-01T04:28:24;99858.63;;;24.58;56.65
63399;BME280;49533;-34.520;150.798;2023-03-01T04:30:52;99846.75;;;24.54;56.82
63399;BME280;49533;-34.520;150.798;2023-03-01T04:33:20;99857.53;;;24.52;56.91
63399;BME280;49533;-34.520;150.798;2023-03-01T04:35:47;99850.38;;;24.51;57.14
63399;BME280;49533;-34.520;150.798;2023-03-01T04:38:17;99850.38;;;24.51;57.30
63399;BME280;49533;-34.520;150.798;2023-03-01T04:40:44;99840.97;;;24.45;57.07
63399;BME280;49533;-34.520;150.798;2023-03-01T04:43:12;99860.31;;;24.52;56.79
63399;BME280;49533;-34.520;150.798;2023-03-01T04:45:41;99848.06;;;24.46;57.45
63399;BME280;49533;-34.520;150.798;2023-03-01T04:48:08;99860.78;;;24.47;57.29
63399;BME280;49533;-34.520;150.798;2023-03-01T04:50:36;99858.00;;;24.47;57.04
63399;BME280;49533;-34.520;150.798;2023-03-01T04:53:03;99869.03;;;24.50;57.67
63399;BME280;49533;-34.520;150.798;2023-03-01T04:55:30;99858.34;;;24.49;56.88
63399;BME280;49533;-34.520;150.798;2023-03-01T04:57:57;99861.91;;;24.49;57.01
63399;BME280;49533;-34.520;150.798;2023-03-01T05:00:25;99867.09;;;24.47;56.49
63399;BME280;49533;-34.520;150.798;2023-03-01T05:02:56;99868.72;;;24.45;56.62
63399;BME280;49533;-34.520;150.798;2023-03-01T05:05:27;99872.66;;;24.44;56.21
63399;BME280;49533;-34.520;150.798;2023-03-01T05:07:56;99884.22;;;24.39;56.01
63399;BME280;49533;-34.520;150.798;2023-03-01T05:10:25;99881.19;;;24.29;56.54
63399;BME280;49533;-34.520;150.798;2023-03-01T05:12:52;99886.66;;;24.37;56.68
63399;BME280;49533;-34.520;150.798;2023-03-01T05:15:20;99892.56;;;24.39;57.07
63399;BME280;49533;-34.520;150.798;2023-03-01T05:17:49;99895.34;;;24.39;56.47
63399;BME280;49533;-34.520;150.798;2023-03-01T05:20:16;99897.41;;;24.31;57.08
63399;BME280;49533;-34.520;150.798;2023-03-01T05:22:44;99908.44;;;24.38;56.90
63399;BME280;49533;-34.520;150.798;2023-03-01T05:25:11;99899.31;;;24.38;56.19
63399;BME280;49533;-34.520;150.798;2023-03-01T05:27:40;99892.69;;;24.28;56.75
63399;BME280;49533;-34.520;150.798;2023-03-01T05:30:09;99892.28;;;24.29;56.54
63399;BME280;49533;-34.520;150.798;2023-03-01T05:32:45;99893.78;;;24.38;56.27
63399;BME280;49533;-34.520;150.798;2023-03-01T05:35:13;99887.91;;;24.32;55.84
63399;BME280;49533;-34.520;150.798;2023-03-01T05:37:43;99891.91;;;24.27;55.90
63399;BME280;49533;-34.520;150.798;2023-03-01T05:40:13;99893.94;;;24.23;56.26
63399;BME280;49533;-34.520;150.798;2023-03-01T05:42:46;99895.34;;;24.39;56.96
63399;BME280;49533;-34.520;150.798;2023-03-01T05:45:14;99897.19;;;24.52;56.09
63399;BME280;49533;-34.520;150.798;2023-03-01T05:47:43;99895.56;;;24.55;56.34
63399;BME280;49533;-34.520;150.798;2023-03-01T05:50:15;99906.88;;;24.68;56.39
63399;BME280;49533;-34.520;150.798;2023-03-01T05:52:50;99905.63;;;24.72;56.37
63399;BME280;49533;-34.520;150.798;2023-03-01T05:55:19;99900.81;;;24.77;56.25
63399;BME280;49533;-34.520;150.798;2023-03-01T05:57:46;99907.88;;;24.81;56.30
63399;BME280;49533;-34.520;150.798;2023-03-01T06:00:16;99897.19;;;24.80;56.26
63399;BME280;49533;-34.520;150.798;2023-03-01T06:02:44;99906.25;;;24.84;56.45
63399;BME280;49533;-34.520;150.798;2023-03-01T06:05:14;99906.66;;;24.82;56.14
63399;BME280;49533;-34.520;150.798;2023-03-01T06:07:41;99928.41;;;24.87;56.17
63399;BME280;49533;-34.520;150.798;2023-03-01T06:10:10;99919.41;;;24.80;56.51
63399;BME280;49533;-34.520;150.798;2023-03-01T06:12:39;99925.25;;;24.89;56.24
63399;BME280;49533;-34.520;150.798;2023-03-01T06:15:08;99937.56;;;24.88;56.61
63399;BME280;49533;-34.520;150.798;2023-03-01T06:17:38;99938.75;;;24.87;56.60
63399;BME280;49533;-34.520;150.798;2023-03-01T06:20:10;99934.34;;;24.89;56.59
63399;BME280;49533;-34.520;150.798;2023-03-01T06:22:39;99937.50;;;24.91;55.94
63399;BME280;49533;-34.520;150.798;2023-03-01T06:25:07;99930.38;;;24.90;56.36
63399;BME280;49533;-34.520;150.798;2023-03-01T06:27:35;99928.78;;;24.89;56.29
63399;BME280;49533;-34.520;150.798;2023-03-01T06:30:03;99941.06;;;24.92;56.31
63399;BME280;49533;-34.520;150.798;2023-03-01T06:32:30;99940.22;;;24.95;56.84
63399;BME280;49533;-34.520;150.798;2023-03-01T06:34:57;99940.28;;;24.91;56.19
63399;BME280;49533;-34.520;150.798;2023-03-01T06:37:25;99949.41;;;24.92;56.65
63399;BME280;49533;-34.520;150.798;2023-03-01T06:39:53;99948.22;;;24.93;56.81
63399;BME280;49533;-34.520;150.798;2023-03-01T06:42:20;99956.06;;;24.98;56.67
63399;BME280;49533;-34.520;150.798;2023-03-01T06:44:47;99954.13;;;24.95;56.86
63399;BME280;49533;-34.520;150.798;2023-03-01T06:47:14;99955.41;;;24.90;56.49
63399;BME280;49533;-34.520;150.798;2023-03-01T06:49:41;99968.84;;;24.92;56.42
63399;BME280;49533;-34.520;150.798;2023-03-01T06:52:08;99970.06;;;24.91;56.56
63399;BME280;49533;-34.520;150.798;2023-03-01T06:54:35;99974.84;;;24.90;56.50
63399;BME280;49533;-34.520;150.798;2023-03-01T06:57:03;99973.69;;;24.88;56.41
63399;BME280;49533;-34.520;150.798;2023-03-01T06:59:30;99985.53;;;24.92;57.03
63399;BME280;49533;-34.520;150.798;2023-03-01T07:01:58;99976.88;;;24.86;57.03
63399;BME280;49533;-34.520;150.798;2023-03-01T07:04:25;99985.53;;;24.92;57.07
63399;BME280;49533;-34.520;150.798;2023-03-01T07:06:55;99986.44;;;24.85;56.83
63399;BME280;49533;-34.520;150.798;2023-03-01T07:09:23;99995.09;;;24.87;56.68
63399;BME280;49533;-34.520;150.798;2023-03-01T07:11:50;99999.88;;;24.87;57.48
63399;BME280;49533;-34.520;150.798;2023-03-01T07:14:17;100002.28;;;24.85;56.98
63399;BME280;49533;-34.520;150.798;2023-03-01T07:16:46;100003.09;;;24.85;57.52
63399;BME280;49533;-34.520;150.798;2023-03-01T07:19:14;99999.94;;;24.83;57.38
63399;BME280;49533;-34.520;150.798;2023-03-01T07:21:41;100006.28;;;24.84;57.08
63399;BME280;49533;-34.520;150.798;2023-03-01T07:24:09;99999.63;;;24.78;57.58
63399;BME280;49533;-34.520;150.798;2023-03-01T07:26:37;100007.91;;;24.81;57.46
63399;BME280;49533;-34.520;150.798;2023-03-01T07:29:05;100011.91;;;24.80;57.32
63399;BME280;49533;-34.520;150.798;2023-03-01T07:31:32;100007.59;;;24.76;57.52
63399;BME280;49533;-34.520;150.798;2023-03-01T07:34:00;100015.13;;;24.75;57.82
63399;BME280;49533;-34.520;150.798;2023-03-01T07:36:27;100011.53;;;24.74;57.70
63399;BME280;49533;-34.520;150.798;2023-03-01T07:38:54;100015.13;;;24.75;57.78
63399;BME280;49533;-34.520;150.798;2023-03-01T07:41:22;100023.03;;;24.77;57.41
63399;BME280;49533;-34.520;150.798;2023-03-01T07:43:49;100016.75;;;24.72;57.41
63399;BME280;49533;-34.520;150.798;2023-03-01T07:46:16;100004.97;;;24.61;57.84
63399;BME280;49533;-34.520;150.798;2023-03-01T07:48:45;100039.38;;;24.71;57.35
63399;BME280;49533;-34.520;150.798;2023-03-01T07:51:12;100017.56;;;24.69;57.39
63399;BME280;49533;-34.520;150.798;2023-03-01T07:53:40;100028.66;;;24.69;57.63
63399;BME280;49533;-34.520;150.798;2023-03-01T07:56:10;100032.72;;;24.65;57.65
63399;BME280;49533;-34.520;150.798;2023-03-01T07:58:40;100025.56;;;24.64;57.92
63399;BME280;49533;-34.520;150.798;2023-03-01T08:01:09;100041.47;;;24.63;57.56
63399;BME280;49533;-34.520;150.798;2023-03-01T08:03:37;100038.72;;;24.60;57.60
63399;BME280;49533;-34.520;150.798;2023-03-01T08:06:07;100050.19;;;24.62;57.74
63399;BME280;49533;-34.520;150.798;2023-03-01T08:08:35;100056.13;;;24.64;57.66
63399;BME280;49533;-34.520;150.798;2023-03-01T08:11:04;100054.97;;;24.61;57.83
63399;BME280;49533;-34.520;150.798;2023-03-01T08:13:32;100064.50;;;24.60;57.90
63399;BME280;49533;-34.520;150.798;2023-03-01T08:16:04;100067.31;;;24.57;57.57
63399;BME280;49533;-34.520;150.798;2023-03-01T08:18:32;100062.19;;;24.55;57.51
63399;BME280;49533;-34.520;150.798;2023-03-01T08:21:04;100078.47;;;24.53;57.75
63399;BME280;49533;-34.520;150.798;2023-03-01T08:23:32;100074.94;;;24.49;57.95
63399;BME280;49533;-34.520;150.798;2023-03-01T08:26:04;100077.34;;;24.47;57.56
63399;BME280;49533;-34.520;150.798;2023-03-01T08:28:32;100071.41;;;24.41;57.58
63399;BME280;49533;-34.520;150.798;2023-03-01T08:30:59;100082.91;;;24.43;57.82
63399;BME280;49533;-34.520;150.798;2023-03-01T08:33:27;100073.47;;;24.34;58.04
63399;BME280;49533;-34.520;150.798;2023-03-01T08:36:03;100084.13;;;24.39;58.41
63399;BME280;49533;-34.520;150.798;2023-03-01T08:38:30;100077.41;;;24.36;58.14
63399;BME280;49533;-34.520;150.798;2023-03-01T08:41:00;100088.94;;;24.35;57.83
63399;BME280;49533;-34.520;150.798;2023-03-01T08:43:28;100094.50;;;24.35;57.68
63399;BME280;49533;-34.520;150.798;2023-03-01T08:45:55;100103.59;;;24.35;57.56
63399;BME280;49533;-34.520;150.798;2023-03-01T08:48:22;100106.84;;;24.30;58.04
63399;BME280;49533;-34.520;150.798;2023-03-01T08:50:49;100107.69;;;24.23;58.21
63399;BME280;49533;-34.520;150.798;2023-03-01T08:53:16;100115.94;;;24.30;58.26
63399;BME280;49533;-34.520;150.798;2023-03-01T08:55:43;100119.94;;;24.29;58.14
63399;BME280;49533;-34.520;150.798;2023-03-01T08:58:10;100127.47;;;24.29;58.33
63399;BME280;49533;-34.520;150.798;2023-03-01T09:00:38;100129.88;;;24.27;58.30
63399;BME280;49533;-34.520;150.798;2023-03-01T09:03:06;100132.25;;;24.25;58.21
63399;BME280;49533;-34.520;150.798;2023-03-01T09:05:34;100127.53;;;24.18;58.13
63399;BME280;49533;-34.520;150.798;2023-03-01T09:08:03;100128.72;;;24.21;58.19
63399;BME280;49533;-34.520;150.798;2023-03-01T09:10:30;100136.25;;;24.20;58.56
63399;BME280;49533;-34.520;150.798;2023-03-01T09:12:57;100142.59;;;24.21;58.61
63399;BME280;49533;-34.520;150.798;2023-03-01T09:15:24;100136.28;;;24.17;58.64
63399;BME280;49533;-34.520;150.798;2023-03-01T09:17:51;100139.09;;;24.13;58.76
63399;BME280;49533;-34.520;150.798;2023-03-01T09:20:18;100148.22;;;24.14;58.33
63399;BME280;49533;-34.520;150.798;2023-03-01T09:22:45;100147.41;;;24.13;58.68
63399;BME280;49533;-34.520;150.798;2023-03-01T09:25:13;100164.06;;;24.13;58.94
63399;BME280;49533;-34.520;150.798;2023-03-01T09:27:40;100158.16;;;24.07;59.04
63399;BME280;49533;-34.520;150.798;2023-03-01T09:30:08;100161.72;;;24.08;58.88
63399;BME280;49533;-34.520;150.798;2023-03-01T09:32:36;100162.94;;;24.07;58.95
63399;BME280;49533;-34.520;150.798;2023-03-01T09:35:03;100165.75;;;24.03;59.08
63399;BME280;49533;-34.520;150.798;2023-03-01T09:37:32;100162.59;;;24.01;59.04
63399;BME280;49533;-34.520;150.798;2023-03-01T09:40:00;100178.03;;;24.06;58.78
63399;BME280;49533;-34.520;150.798;2023-03-01T09:42:29;100173.25;;;24.03;58.66
63399;BME280;49533;-34.520;150.798;2023-03-01T09:45:06;100174.06;;;24.03;59.01
63399;BME280;49533;-34.520;150.798;2023-03-01T09:47:35;100183.19;;;24.00;58.92
63399;BME280;49533;-34.520;150.798;2023-03-01T09:50:13;100187.56;;;23.98;59.17
63399;BME280;49533;-34.520;150.798;2023-03-01T09:55:43;100197.47;;;23.99;58.89
63399;BME280;49533;-34.520;150.798;2023-03-01T10:01:23;100207.03;;;23.94;59.02
63399;BME280;49533;-34.520;150.798;2023-03-01T10:04:04;100200.69;;;23.90;58.90
63399;BME280;49533;-34.520;150.798;2023-03-01T10:06:39;100207.84;;;23.91;59.08
63399;BME280;49533;-34.520;150.798;2023-03-01T10:09:14;100208.22;;;23.93;59.03
63399;BME280;49533;-34.520;150.798;2023-03-01T10:11:50;100211.41;;;23.92;59.16
63399;BME280;49533;-34.520;150.798;2023-03-01T10:14:35;100207.47;;;23.85;59.08
63399;BME280;49533;-34.520;150.798;2023-03-01T10:17:37;100213.78;;;23.90;59.17
63399;BME280;49533;-34.520;150.798;2023-03-01T10:20:05;100223.72;;;23.87;59.17
63399;BME280;49533;-34.520;150.798;2023-03-01T10:22:37;100220.97;;;23.83;59.27
63399;BME280;49533;-34.520;150.798;2023-03-01T10:25:04;100232.06;;;23.83;59.37
63399;BME280;49533;-34.520;150.798;2023-03-01T10:27:47;100235.63;;;23.84;59.29
63399;BME280;49533;-34.520;150.798;2023-03-01T10:30:37;100234.44;;;23.81;59.50
63399;BME280;49533;-34.520;150.798;2023-03-01T10:33:24;100219.78;;;23.77;59.57
63399;BME280;49533;-34.520;150.798;2023-03-01T10:35:53;100232.06;;;23.83;59.39
63399;BME280;49533;-34.520;150.798;2023-03-01T10:38:20;100232.88;;;23.80;59.52
63399;BME280;49533;-34.520;150.798;2023-03-01T10:41:04;100241.19;;;23.80;59.24
63399;BME280;49533;-34.520;150.798;2023-03-01T10:43:43;100246.34;;;23.78;59.38
63399;BME280;49533;-34.520;150.798;2023-03-01T10:46:25;100240.03;;;23.74;59.30
63399;BME280;49533;-34.520;150.798;2023-03-01T10:49:14;100246.78;;;23.73;59.36
63399;BME280;49533;-34.520;150.798;2023-03-01T10:51:43;100255.09;;;23.73;59.31
63399;BME280;49533;-34.520;150.798;2023-03-01T10:54:20;100254.66;;;23.71;59.66
63399;BME280;49533;-34.520;150.798;2023-03-01T10:56:50;100261.81;;;23.72;59.57
63399;BME280;49533;-34.520;150.798;2023-03-01T10:59:25;100246.38;;;23.68;59.77
63399;BME280;49533;-34.520;150.798;2023-03-01T11:02:08;100256.28;;;23.72;59.57
63399;BME280;49533;-34.520;150.798;2023-03-01T11:04:59;100253.53;;;23.65;59.64
63399;BME280;49533;-34.520;150.798;2023-03-01T11:07:27;100255.09;;;23.66;59.94
63399;BME280;49533;-34.520;150.798;2023-03-01T11:09:54;100257.88;;;23.66;59.92
63399;BME280;49533;-34.520;150.798;2023-03-01T11:12:22;100262.63;;;23.65;59.72
63399;BME280;49533;-34.520;150.798;2023-03-01T11:14:51;100263.41;;;23.66;59.65
63399;BME280;49533;-34.520;150.798;2023-03-01T11:17:29;100263.41;;;23.66;59.96
63399;BME280;49533;-34.520;150.798;2023-03-01T11:20:19;100253.13;;;23.63;59.67
63399;BME280;49533;-34.520;150.798;2023-03-01T11:22:54;100259.50;;;23.60;59.88
63399;BME280;49533;-34.520;150.798;2023-03-01T11:25:26;100263.44;;;23.62;59.81
63399;BME280;49533;-34.520;150.798;2023-03-01T11:27:56;100261.88;;;23.58;59.93
63399;BME280;49533;-34.520;150.798;2023-03-01T11:30:39;100266.59;;;23.61;59.42
63399;BME280;49533;-34.520;150.798;2023-03-01T11:33:17;100265.03;;;23.60;59.65
63399;BME280;49533;-34.520;150.798;2023-03-01T11:35:58;100260.66;;;23.59;59.83
63399;BME280;49533;-34.520;150.798;2023-03-01T11:38:28;100259.50;;;23.60;59.75
63399;BME280;49533;-34.520;150.798;2023-03-01T11:41:18;100267.00;;;23.56;59.86
63399;BME280;49533;-34.520;150.798;2023-03-01T11:43:59;100252.38;;;23.52;59.76
63399;BME280;49533;-34.520;150.798;2023-03-01T11:47:04;100261.06;;;23.54;59.89
63399;BME280;49533;-34.520;150.798;2023-03-01T11:49:52;100257.91;;;23.52;59.74
63399;BME280;49533;-34.520;150.798;2023-03-01T11:52:35;100255.16;;;23.48;59.88
63399;BME280;49533;-34.520;150.798;2023-03-01T11:58:27;100269.81;;;23.49;60.12
63399;BME280;49533;-34.520;150.798;2023-03-01T12:01:07;100265.47;;;23.48;59.79
63399;BME280;49533;-34.520;150.798;2023-03-01T12:04:00;100259.53;;;23.46;59.73
63399;BME280;49533;-34.520;150.798;2023-03-01T12:06:50;100268.22;;;23.44;59.80
63399;BME280;49533;-34.520;150.798;2023-03-01T12:09:48;100260.72;;;23.44;59.52
63399;BME280;49533;-34.520;150.798;2023-03-01T12:12:46;100273.38;;;23.46;59.65
63399;BME280;49533;-34.520;150.798;2023-03-01T12:15:39;100269.03;;;23.41;59.82
63399;BME280;49533;-34.520;150.798;2023-03-01T12:18:30;100272.22;;;23.39;59.97
63399;BME280;49533;-34.520;150.798;2023-03-01T12:21:21;100278.16;;;23.41;59.54
63399;BME280;49533;-34.520;150.798;2023-03-01T12:24:21;100269.84;;;23.38;59.73
63399;BME280;49533;-34.520;150.798;2023-03-01T12:36:28;100262.34;;;23.31;59.63
63399;BME280;49533;-34.520;150.798;2023-03-01T12:39:19;100274.59;;;23.34;59.88
63399;BME280;49533;-34.520;150.798;2023-03-01T12:48:11;100261.97;;;23.29;59.78
63399;BME280;49533;-34.520;150.798;2023-03-01T12:50:49;100264.75;;;23.29;59.93
63399;BME280;49533;-34.520;150.798;2023-03-01T12:53:25;100263.53;;;23.30;59.86
63399;BME280;49533;-34.520;150.798;2023-03-01T12:56:00;100260.38;;;23.25;59.84
63399;BME280;49533;-34.520;150.798;2023-03-01T12:58:38;100263.56;;;23.27;60.02
63399;BME280;49533;-34.520;150.798;2023-03-01T13:01:35;100267.53;;;23.22;60.06
63399;BME280;49533;-34.520;150.798;2023-03-01T13:04:31;100274.66;;;23.27;59.96
63399;BME280;49533;-34.520;150.798;2023-03-01T13:07:25;100265.53;;;23.22;60.04
63399;BME280;49533;-34.520;150.798;2023-03-01T13:10:11;100275.81;;;23.26;60.23
63399;BME280;49533;-34.520;150.798;2023-03-01T13:13:08;100270.28;;;23.22;60.08
63399;BME280;49533;-34.520;150.798;2023-03-01T13:15:38;100268.31;;;23.19;60.03